sensor_id;sensor_type;location;lat;lon;timestamp;P1;durP1;ratioP1;P2;durP2;ratioP2
4698;SDS011;33708;49.466;11.176;2024-01-15T00:00:42;63.70;;;24.40;;
4698;SDS011;33708;49.466;11.176;2024-01-15T00:03:08;67.57;;;25.57;;
4698;SDS011;33708;49.466;11.176;2024-01-15T00:05:34;66.23;;;26.67;;
4698;SDS011;33708;49.466;11.176;2024-01-15T00:08:00;58.20;;;25.17;;
4698;SDS011;33708;49.466;11.176;2024-01-15T00:10:25;62.63;;;24.77;;
4698;SDS011;33708;49.466;11.176;2024-01-15T00:12:51;60.37;;;25.20;;
4698;SDS011;33708;49.466;11.176;2024-01-15T00:15:17;60.47;;;23.87;;
4698;SDS011;33708;49.466;11.176;2024-01-15T00:17:42;58.77;;;24.53;;
4698;SDS011;33708;49.466;11.176;2024-01-15T00:20:08;55.23;;;23.67;;
4698;SDS011;33708;49.466;11.176;2024-01-15T00:22:33;64.00;;;25.17;;
4698;SDS011;33708;49.466;11.176;2024-01-15T00:25:00;56.97;;;23.60;;
4698;SDS011;33708;49.466;11.176;2024-01-15T00:27:26;58.23;;;24.70;;
4698;SDS011;33708;49.466;11.176;2024-01-15T00:29:52;58.90;;;23.37;;
4698;SDS011;33708;49.466;11.176;2024-01-15T00:32:19;59.10;;;23.80;;
4698;SDS011;33708;49.466;11.176;2024-01-15T00:34:45;65.83;;;24.03;;
4698;SDS011;33708;49.466;11.176;2024-01-15T00:37:11;64.43;;;23.40;;
4698;SDS011;33708;49.466;11.176;2024-01-15T00:39:36;55.80;;;23.93;;
4698;SDS011;33708;49.466;11.176;2024-01-15T00:42:02;65.53;;;23.70;;
4698;SDS011;33708;49.466;11.176;2024-01-15T00:44:28;57.60;;;21.13;;
4698;SDS011;33708;49.466;11.176;2024-01-15T00:46:53;56.37;;;23.00;;
4698;SDS011;33708;49.466;11.176;2024-01-15T00:49:19;58.93;;;22.13;;
4698;SDS011;33708;49.466;11.176;2024-01-15T00:51:44;57.00;;;22.77;;
4698;SDS011;33708;49.466;11.176;2024-01-15T00:54:10;55.83;;;22.33;;
4698;SDS011;33708;49.466;11.176;2024-01-15T00:56:36;54.43;;;22.93;;
4698;SDS011;33708;49.466;11.176;2024-01-15T00:59:02;73.20;;;26.13;;
4698;SDS011;33708;49.466;11.176;2024-01-15T01:01:27;60.83;;;25.13;;
4698;SDS011;33708;49.466;11.176;2024-01-15T01:03:53;61.87;;;24.77;;
4698;SDS011;33708;49.466;11.176;2024-01-15T01:06:19;60.63;;;22.40;;
4698;SDS011;33708;49.466;11.176;2024-01-15T01:08:44;59.33;;;23.33;;
4698;SDS011;33708;49.466;11.176;2024-01-15T01:11:13;60.13;;;24.97;;
4698;SDS011;33708;49.466;11.176;2024-01-15T01:13:40;63.10;;;23.50;;
4698;SDS011;33708;49.466;11.176;2024-01-15T01:16:05;66.70;;;26.77;;
4698;SDS011;33708;49.466;11.176;2024-01-15T01:18:31;55.27;;;23.60;;
4698;SDS011;33708;49.466;11.176;2024-01-15T01:20:56;58.40;;;22.70;;
4698;SDS011;33708;49.466;11.176;2024-01-15T01:23:22;60.37;;;24.10;;
4698;SDS011;33708;49.466;11.176;2024-01-15T01:25:47;58.20;;;24.30;;
4698;SDS011;33708;49.466;11.176;2024-01-15T01:28:13;58.23;;;22.90;;
4698;SDS011;33708;49.466;11.176;2024-01-15T01:30:38;58.10;;;23.13;;
4698;SDS011;33708;49.466;11.176;2024-01-15T01:33:04;57.97;;;23.30;;
4698;SDS011;33708;49.466;11.176;2024-01-15T01:35:30;59.30;;;25.17;;
4698;SDS011;33708;49.466;11.176;2024-01-15T01:37:55;48.87;;;22.40;;
4698;SDS011;33708;49.466;11.176;2024-01-15T01:40:21;55.80;;;23.37;;
4698;SDS011;33708;49.466;11.176;2024-01-15T01:42:47;52.30;;;23.27;;
4698;SDS011;33708;49.466;11.176;2024-01-15T01:45:14;52.23;;;22.30;;
4698;SDS011;33708;49.466;11.176;2024-01-15T01:47:40;56.63;;;23.63;;
4698;SDS011;33708;49.466;11.176;2024-01-15T01:50:06;62.57;;;24.80;;
4698;SDS011;33708;49.466;11.176;2024-01-15T01:52:32;57.40;;;24.97;;
4698;SDS011;33708;49.466;11.176;2024-01-15T01:54:59;56.37;;;24.13;;
4698;SDS011;33708;49.466;11.176;2024-01-15T01:57:27;58.83;;;23.83;;
4698;SDS011;33708;49.466;11.176;2024-01-15T01:59:53;52.93;;;24.03;;
4698;SDS011;33708;49.466;11.176;2024-01-15T02:02:19;55.13;;;23.20;;
4698;SDS011;33708;49.466;11.176;2024-01-15T02:04:46;54.67;;;21.30;;
4698;SDS011;33708;49.466;11.176;2024-01-15T02:07:13;62.17;;;23.10;;
4698;SDS011;33708;49.466;11.176;2024-01-15T02:09:38;59.13;;;24.30;;
4698;SDS011;33708;49.466;11.176;2024-01-15T02:12:04;57.73;;;22.17;;
4698;SDS011;33708;49.466;11.176;2024-01-15T02:14:30;59.10;;;23.80;;
4698;SDS011;33708;49.466;11.176;2024-01-15T02:16:56;55.13;;;22.43;;
4698;SDS011;33708;49.466;11.176;2024-01-15T02:19:22;52.63;;;22.33;;
4698;SDS011;33708;49.466;11.176;2024-01-15T02:21:47;54.20;;;22.10;;
4698;SDS011;33708;49.466;11.176;2024-01-15T02:24:13;59.00;;;22.40;;
4698;SDS011;33708;49.466;11.176;2024-01-15T02:26:38;51.73;;;22.37;;
4698;SDS011;33708;49.466;11.176;2024-01-15T02:29:05;49.70;;;21.73;;
4698;SDS011;33708;49.466;11.176;2024-01-15T02:31:33;48.73;;;20.80;;
4698;SDS011;33708;49.466;11.176;2024-01-15T02:34:00;49.87;;;21.23;;
4698;SDS011;33708;49.466;11.176;2024-01-15T02:36:25;57.17;;;20.47;;
4698;SDS011;33708;49.466;11.176;2024-01-15T02:38:51;46.73;;;20.23;;
4698;SDS011;33708;49.466;11.176;2024-01-15T02:41:17;50.57;;;20.20;;
4698;SDS011;33708;49.466;11.176;2024-01-15T02:43:42;48.83;;;21.70;;
4698;SDS011;33708;49.466;11.176;2024-01-15T02:46:08;44.67;;;19.70;;
4698;SDS011;33708;49.466;11.176;2024-01-15T02:48:33;44.00;;;19.97;;
4698;SDS011;33708;49.466;11.176;2024-01-15T02:51:02;51.70;;;20.20;;
4698;SDS011;33708;49.466;11.176;2024-01-15T02:53:28;49.73;;;19.30;;
4698;SDS011;33708;49.466;11.176;2024-01-15T02:55:53;46.20;;;18.53;;
4698;SDS011;33708;49.466;11.176;2024-01-15T02:58:19;47.40;;;20.10;;
4698;SDS011;33708;49.466;11.176;2024-01-15T03:00:45;46.53;;;19.27;;
4698;SDS011;33708;49.466;11.176;2024-01-15T03:03:11;44.40;;;18.60;;
4698;SDS011;33708;49.466;11.176;2024-01-15T03:05:37;44.27;;;19.13;;
4698;SDS011;33708;49.466;11.176;2024-01-15T03:08:03;46.27;;;19.07;;
4698;SDS011;33708;49.466;11.176;2024-01-15T03:10:29;44.37;;;18.50;;
4698;SDS011;33708;49.466;11.176;2024-01-15T03:12:54;43.37;;;18.43;;
4698;SDS011;33708;49.466;11.176;2024-01-15T03:15:20;41.47;;;18.20;;
4698;SDS011;33708;49.466;11.176;2024-01-15T03:17:45;35.87;;;16.93;;
4698;SDS011;33708;49.466;11.176;2024-01-15T03:20:11;43.80;;;17.60;;
4698;SDS011;33708;49.466;11.176;2024-01-15T03:22:37;48.17;;;19.17;;
4698;SDS011;33708;49.466;11.176;2024-01-15T03:25:03;41.93;;;18.23;;
4698;SDS011;33708;49.466;11.176;2024-01-15T03:27:29;41.17;;;18.40;;
4698;SDS011;33708;49.466;11.176;2024-01-15T03:29:55;41.83;;;17.40;;
4698;SDS011;33708;49.466;11.176;2024-01-15T03:32:20;42.43;;;17.67;;
4698;SDS011;33708;49.466;11.176;2024-01-15T03:34:46;40.50;;;16.37;;
4698;SDS011;33708;49.466;11.176;2024-01-15T03:37:12;46.73;;;16.70;;
4698;SDS011;33708;49.466;11.176;2024-01-15T03:39:38;39.23;;;17.40;;
4698;SDS011;33708;49.466;11.176;2024-01-15T03:42:04;38.47;;;17.27;;
4698;SDS011;33708;49.466;11.176;2024-01-15T03:44:29;39.37;;;16.33;;
4698;SDS011;33708;49.466;11.176;2024-01-15T03:46:55;43.30;;;17.37;;
4698;SDS011;33708;49.466;11.176;2024-01-15T03:49:20;42.27;;;16.47;;
4698;SDS011;33708;49.466;11.176;2024-01-15T03:51:46;33.83;;;15.20;;
4698;SDS011;33708;49.466;11.176;2024-01-15T03:54:12;32.70;;;15.10;;
4698;SDS011;33708;49.466;11.176;2024-01-15T03:56:37;33.53;;;15.80;;
4698;SDS011;33708;49.466;11.176;2024-01-15T03:59:03;38.73;;;17.17;;
4698;SDS011;33708;49.466;11.176;2024-01-15T04:01:28;36.30;;;15.77;;
4698;SDS011;33708;49.466;11.176;2024-01-15T04:03:54;43.43;;;16.77;;
4698;SDS011;33708;49.466;11.176;2024-01-15T04:06:20;37.10;;;15.50;;
4698;SDS011;33708;49.466;11.176;2024-01-15T04:08:46;32.00;;;15.40;;
4698;SDS011;33708;49.466;11.176;2024-01-15T04:11:11;36.03;;;15.33;;
4698;SDS011;33708;49.466;11.176;2024-01-15T04:13:37;37.70;;;15.13;;
4698;SDS011;33708;49.466;11.176;2024-01-15T04:16:02;36.27;;;15.40;;
4698;SDS011;33708;49.466;11.176;2024-01-15T04:18:28;34.87;;;15.63;;
4698;SDS011;33708;49.466;11.176;2024-01-15T04:20:54;33.67;;;16.20;;
4698;SDS011;33708;49.466;11.176;2024-01-15T04:23:20;29.43;;;13.70;;
4698;SDS011;33708;49.466;11.176;2024-01-15T04:25:45;33.30;;;16.23;;
4698;SDS011;33708;49.466;11.176;2024-01-15T04:28:11;32.80;;;15.70;;
4698;SDS011;33708;49.466;11.176;2024-01-15T04:30:37;32.87;;;14.00;;
4698;SDS011;33708;49.466;11.176;2024-01-15T04:33:03;32.43;;;15.60;;
4698;SDS011;33708;49.466;11.176;2024-01-15T04:35:28;36.93;;;15.60;;
4698;SDS011;33708;49.466;11.176;2024-01-15T04:37:55;34.53;;;13.37;;
4698;SDS011;33708;49.466;11.176;2024-01-15T04:40:20;36.40;;;14.00;;
4698;SDS011;33708;49.466;11.176;2024-01-15T04:42:46;30.67;;;14.07;;
4698;SDS011;33708;49.466;11.176;2024-01-15T04:45:12;32.20;;;12.33;;
4698;SDS011;33708;49.466;11.176;2024-01-15T04:47:37;35.43;;;14.97;;
4698;SDS011;33708;49.466;11.176;2024-01-15T04:50:03;32.17;;;15.07;;
4698;SDS011;33708;49.466;11.176;2024-01-15T04:52:30;35.57;;;14.83;;
4698;SDS011;33708;49.466;11.176;2024-01-15T04:54:55;32.53;;;14.77;;
4698;SDS011;33708;49.466;11.176;2024-01-15T04:57:21;30.23;;;13.70;;
4698;SDS011;33708;49.466;11.176;2024-01-15T04:59:46;31.83;;;14.80;;
4698;SDS011;33708;49.466;11.176;2024-01-15T05:02:12;34.10;;;15.47;;
4698;SDS011;33708;49.466;11.176;2024-01-15T05:04:37;33.20;;;15.50;;
4698;SDS011;33708;49.466;11.176;2024-01-15T05:07:03;29.03;;;13.67;;
4698;SDS011;33708;49.466;11.176;2024-01-15T05:09:28;32.97;;;15.23;;
4698;SDS011;33708;49.466;11.176;2024-01-15T05:11:54;32.50;;;13.77;;
4698;SDS011;33708;49.466;11.176;2024-01-15T05:14:20;39.27;;;15.87;;
4698;SDS011;33708;49.466;11.176;2024-01-15T05:16:48;31.33;;;14.70;;
4698;SDS011;33708;49.466;11.176;2024-01-15T05:19:14;29.80;;;13.37;;
4698;SDS011;33708;49.466;11.176;2024-01-15T05:21:40;33.63;;;15.37;;
4698;SDS011;33708;49.466;11.176;2024-01-15T05:24:06;31.87;;;14.40;;
4698;SDS011;33708;49.466;11.176;2024-01-15T05:26:32;36.33;;;15.50;;
4698;SDS011;33708;49.466;11.176;2024-01-15T05:28:58;33.03;;;14.97;;
4698;SDS011;33708;49.466;11.176;2024-01-15T05:31:23;31.80;;;14.87;;
4698;SDS011;33708;49.466;11.176;2024-01-15T05:33:49;29.90;;;15.50;;
4698;SDS011;33708;49.466;11.176;2024-01-15T05:36:14;34.90;;;15.20;;
4698;SDS011;33708;49.466;11.176;2024-01-15T05:38:40;34.83;;;14.97;;
4698;SDS011;33708;49.466;11.176;2024-01-15T05:41:05;29.83;;;15.27;;
4698;SDS011;33708;49.466;11.176;2024-01-15T05:43:31;31.67;;;13.90;;
4698;SDS011;33708;49.466;11.176;2024-01-15T05:45:57;30.17;;;14.07;;
4698;SDS011;33708;49.466;11.176;2024-01-15T05:48:23;35.67;;;13.97;;
4698;SDS011;33708;49.466;11.176;2024-01-15T05:50:48;26.73;;;14.37;;
4698;SDS011;33708;49.466;11.176;2024-01-15T05:53:14;31.07;;;13.73;;
4698;SDS011;33708;49.466;11.176;2024-01-15T05:55:40;30.73;;;13.70;;
4698;SDS011;33708;49.466;11.176;2024-01-15T05:58:05;29.70;;;13.33;;
4698;SDS011;33708;49.466;11.176;2024-01-15T06:00:32;33.00;;;13.97;;
4698;SDS011;33708;49.466;11.176;2024-01-15T06:03:01;32.47;;;14.00;;
4698;SDS011;33708;49.466;11.176;2024-01-15T06:05:27;31.73;;;14.50;;
4698;SDS011;33708;49.466;11.176;2024-01-15T06:07:52;30.40;;;14.33;;
4698;SDS011;33708;49.466;11.176;2024-01-15T06:10:18;31.47;;;13.93;;
4698;SDS011;33708;49.466;11.176;2024-01-15T06:12:45;33.17;;;13.93;;
4698;SDS011;33708;49.466;11.176;2024-01-15T06:15:11;29.63;;;13.70;;
4698;SDS011;33708;49.466;11.176;2024-01-15T06:17:37;32.03;;;14.70;;
4698;SDS011;33708;49.466;11.176;2024-01-15T06:20:03;25.90;;;13.80;;
4698;SDS011;33708;49.466;11.176;2024-01-15T06:22:29;29.60;;;12.87;;
4698;SDS011;33708;49.466;11.176;2024-01-15T06:24:55;34.00;;;14.43;;
4698;SDS011;33708;49.466;11.176;2024-01-15T06:27:20;41.03;;;13.63;;
4698;SDS011;33708;49.466;11.176;2024-01-15T06:29:46;26.50;;;12.37;;
4698;SDS011;33708;49.466;11.176;2024-01-15T06:32:12;24.70;;;12.30;;
4698;SDS011;33708;49.466;11.176;2024-01-15T06:34:38;27.20;;;12.23;;
4698;SDS011;33708;49.466;11.176;2024-01-15T06:37:04;28.77;;;12.77;;
4698;SDS011;33708;49.466;11.176;2024-01-15T06:39:29;27.13;;;13.43;;
4698;SDS011;33708;49.466;11.176;2024-01-15T06:41:55;38.20;;;14.73;;
4698;SDS011;33708;49.466;11.176;2024-01-15T06:44:21;28.53;;;12.87;;
4698;SDS011;33708;49.466;11.176;2024-01-15T06:46:46;35.37;;;13.53;;
4698;SDS011;33708;49.466;11.176;2024-01-15T06:49:12;30.77;;;14.90;;
4698;SDS011;33708;49.466;11.176;2024-01-15T06:51:38;38.93;;;13.53;;
4698;SDS011;33708;49.466;11.176;2024-01-15T06:54:04;32.67;;;15.00;;
4698;SDS011;33708;49.466;11.176;2024-01-15T06:56:30;42.80;;;15.70;;
4698;SDS011;33708;49.466;11.176;2024-01-15T06:58:56;31.73;;;13.90;;
4698;SDS011;33708;49.466;11.176;2024-01-15T07:01:22;31.30;;;13.83;;
4698;SDS011;33708;49.466;11.176;2024-01-15T07:03:47;34.73;;;14.57;;
4698;SDS011;33708;49.466;11.176;2024-01-15T07:06:13;29.37;;;13.03;;
4698;SDS011;33708;49.466;11.176;2024-01-15T07:08:39;27.83;;;13.13;;
4698;SDS011;33708;49.466;11.176;2024-01-15T07:11:08;29.47;;;13.63;;
4698;SDS011;33708;49.466;11.176;2024-01-15T07:13:34;28.37;;;14.07;;
4698;SDS011;33708;49.466;11.176;2024-01-15T07:16:01;30.93;;;14.60;;
4698;SDS011;33708;49.466;11.176;2024-01-15T07:18:27;34.63;;;15.13;;
4698;SDS011;33708;49.466;11.176;2024-01-15T07:20:53;38.30;;;14.23;;
4698;SDS011;33708;49.466;11.176;2024-01-15T07:23:18;25.70;;;13.63;;
4698;SDS011;33708;49.466;11.176;2024-01-15T07:25:44;27.70;;;13.53;;
4698;SDS011;33708;49.466;11.176;2024-01-15T07:28:09;28.07;;;13.43;;
4698;SDS011;33708;49.466;11.176;2024-01-15T07:30:35;30.47;;;14.27;;
4698;SDS011;33708;49.466;11.176;2024-01-15T07:33:03;27.23;;;13.07;;
4698;SDS011;33708;49.466;11.176;2024-01-15T07:35:29;31.27;;;14.30;;
4698;SDS011;33708;49.466;11.176;2024-01-15T07:37:55;25.97;;;12.90;;
4698;SDS011;33708;49.466;11.176;2024-01-15T07:40:21;24.17;;;12.87;;
4698;SDS011;33708;49.466;11.176;2024-01-15T07:42:47;30.00;;;13.00;;
4698;SDS011;33708;49.466;11.176;2024-01-15T07:45:12;26.67;;;13.10;;
4698;SDS011;33708;49.466;11.176;2024-01-15T07:47:38;27.57;;;13.57;;
4698;SDS011;33708;49.466;11.176;2024-01-15T07:50:04;28.33;;;13.17;;
4698;SDS011;33708;49.466;11.176;2024-01-15T07:52:30;30.60;;;12.73;;
4698;SDS011;33708;49.466;11.176;2024-01-15T07:54:55;27.90;;;13.17;;
4698;SDS011;33708;49.466;11.176;2024-01-15T07:57:21;27.57;;;12.27;;
4698;SDS011;33708;49.466;11.176;2024-01-15T07:59:47;35.33;;;15.03;;
4698;SDS011;33708;49.466;11.176;2024-01-15T08:02:13;23.90;;;12.63;;
4698;SDS011;33708;49.466;11.176;2024-01-15T08:04:39;27.13;;;13.03;;
4698;SDS011;33708;49.466;11.176;2024-01-15T08:07:05;30.03;;;12.43;;
4698;SDS011;33708;49.466;11.176;2024-01-15T08:09:32;26.97;;;13.50;;
4698;SDS011;33708;49.466;11.176;2024-01-15T08:11:58;29.53;;;14.20;;
4698;SDS011;33708;49.466;11.176;2024-01-15T08:14:25;25.10;;;13.73;;
4698;SDS011;33708;49.466;11.176;2024-01-15T08:16:50;32.80;;;14.13;;
4698;SDS011;33708;49.466;11.176;2024-01-15T08:19:16;23.10;;;12.33;;
4698;SDS011;33708;49.466;11.176;2024-01-15T08:21:41;25.67;;;13.37;;
4698;SDS011;33708;49.466;11.176;2024-01-15T08:24:07;21.73;;;12.10;;
4698;SDS011;33708;49.466;11.176;2024-01-15T08:26:33;29.90;;;14.30;;
4698;SDS011;33708;49.466;11.176;2024-01-15T08:28:59;28.30;;;13.93;;
4698;SDS011;33708;49.466;11.176;2024-01-15T08:31:25;23.70;;;12.10;;
4698;SDS011;33708;49.466;11.176;2024-01-15T08:33:50;25.90;;;13.30;;
4698;SDS011;33708;49.466;11.176;2024-01-15T08:36:16;20.93;;;11.43;;
4698;SDS011;33708;49.466;11.176;2024-01-15T08:38:43;30.37;;;12.23;;
4698;SDS011;33708;49.466;11.176;2024-01-15T08:41:09;25.03;;;12.60;;
4698;SDS011;33708;49.466;11.176;2024-01-15T08:43:34;22.37;;;12.17;;
4698;SDS011;33708;49.466;11.176;2024-01-15T08:46:00;26.90;;;12.67;;
4698;SDS011;33708;49.466;11.176;2024-01-15T08:48:26;21.23;;;11.93;;
4698;SDS011;33708;49.466;11.176;2024-01-15T08:50:55;28.67;;;13.03;;
4698;SDS011;33708;49.466;11.176;2024-01-15T08:53:21;23.60;;;11.83;;
4698;SDS011;33708;49.466;11.176;2024-01-15T08:55:47;24.03;;;12.30;;
4698;SDS011;33708;49.466;11.176;2024-01-15T08:58:13;22.87;;;11.70;;
4698;SDS011;33708;49.466;11.176;2024-01-15T09:00:38;22.20;;;12.50;;
4698;SDS011;33708;49.466;11.176;2024-01-15T09:03:04;25.77;;;13.40;;
4698;SDS011;33708;49.466;11.176;2024-01-15T09:05:30;23.77;;;11.63;;
4698;SDS011;33708;49.466;11.176;2024-01-15T09:07:56;22.30;;;12.33;;
4698;SDS011;33708;49.466;11.176;2024-01-15T09:10:21;22.27;;;11.67;;
4698;SDS011;33708;49.466;11.176;2024-01-15T09:12:47;20.77;;;10.83;;
4698;SDS011;33708;49.466;11.176;2024-01-15T09:15:14;20.73;;;11.33;;
4698;SDS011;33708;49.466;11.176;2024-01-15T09:17:39;25.20;;;11.93;;
4698;SDS011;33708;49.466;11.176;2024-01-15T09:20:05;25.83;;;11.23;;
4698;SDS011;33708;49.466;11.176;2024-01-15T09:22:32;21.70;;;11.77;;
4698;SDS011;33708;49.466;11.176;2024-01-15T09:24:58;18.90;;;10.43;;
4698;SDS011;33708;49.466;11.176;2024-01-15T09:27:23;21.80;;;11.60;;
4698;SDS011;33708;49.466;11.176;2024-01-15T09:29:51;22.13;;;11.83;;
4698;SDS011;33708;49.466;11.176;2024-01-15T09:32:19;20.60;;;11.00;;
4698;SDS011;33708;49.466;11.176;2024-01-15T09:34:45;22.13;;;11.30;;
4698;SDS011;33708;49.466;11.176;2024-01-15T09:37:11;21.70;;;11.30;;
4698;SDS011;33708;49.466;11.176;2024-01-15T09:39:39;24.10;;;11.10;;
4698;SDS011;33708;49.466;11.176;2024-01-15T09:42:04;29.50;;;11.70;;
4698;SDS011;33708;49.466;11.176;2024-01-15T09:44:30;17.43;;;9.53;;
4698;SDS011;33708;49.466;11.176;2024-01-15T09:46:56;22.10;;;11.47;;
4698;SDS011;33708;49.466;11.176;2024-01-15T09:49:23;24.00;;;12.70;;
4698;SDS011;33708;49.466;11.176;2024-01-15T09:51:48;21.43;;;11.20;;
4698;SDS011;33708;49.466;11.176;2024-01-15T09:54:15;22.87;;;11.40;;
4698;SDS011;33708;49.466;11.176;2024-01-15T09:56:42;24.80;;;12.70;;
4698;SDS011;33708;49.466;11.176;2024-01-15T09:59:11;20.53;;;11.73;;
4698;SDS011;33708;49.466;11.176;2024-01-15T10:01:43;27.67;;;11.80;;
4698;SDS011;33708;49.466;11.176;2024-01-15T10:04:10;21.30;;;11.63;;
4698;SDS011;33708;49.466;11.176;2024-01-15T10:06:37;20.40;;;11.30;;
4698;SDS011;33708;49.466;11.176;2024-01-15T10:09:04;22.23;;;11.40;;
4698;SDS011;33708;49.466;11.176;2024-01-15T10:11:30;22.93;;;12.00;;
4698;SDS011;33708;49.466;11.176;2024-01-15T10:13:57;21.50;;;10.10;;
4698;SDS011;33708;49.466;11.176;2024-01-15T10:16:23;20.57;;;12.10;;
4698;SDS011;33708;49.466;11.176;2024-01-15T10:18:49;22.80;;;11.30;;
4698;SDS011;33708;49.466;11.176;2024-01-15T10:21:14;27.50;;;11.20;;
4698;SDS011;33708;49.466;11.176;2024-01-15T10:23:41;24.90;;;12.40;;
4698;SDS011;33708;49.466;11.176;2024-01-15T10:26:06;23.07;;;12.20;;
4698;SDS011;33708;49.466;11.176;2024-01-15T10:28:33;23.77;;;11.70;;
4698;SDS011;33708;49.466;11.176;2024-01-15T10:30:59;25.10;;;12.57;;
4698;SDS011;33708;49.466;11.176;2024-01-15T10:33:25;25.60;;;12.93;;
4698;SDS011;33708;49.466;11.176;2024-01-15T10:35:55;25.73;;;11.50;;
4698;SDS011;33708;49.466;11.176;2024-01-15T10:38:22;22.90;;;11.27;;
4698;SDS011;33708;49.466;11.176;2024-01-15T10:40:55;19.83;;;11.30;;
4698;SDS011;33708;49.466;11.176;2024-01-15T10:43:21;19.93;;;11.30;;
4698;SDS011;33708;49.466;11.176;2024-01-15T10:45:48;22.20;;;12.40;;
4698;SDS011;33708;49.466;11.176;2024-01-15T10:48:15;18.70;;;10.30;;
4698;SDS011;33708;49.466;11.176;2024-01-15T10:50:42;20.67;;;11.10;;
4698;SDS011;33708;49.466;11.176;2024-01-15T10:53:09;18.10;;;10.50;;
4698;SDS011;33708;49.466;11.176;2024-01-15T10:55:38;22.73;;;11.20;;
4698;SDS011;33708;49.466;11.176;2024-01-15T10:58:07;23.07;;;10.80;;
4698;SDS011;33708;49.466;11.176;2024-01-15T11:00:33;19.03;;;10.90;;
4698;SDS011;33708;49.466;11.176;2024-01-15T11:03:01;18.90;;;10.37;;
4698;SDS011;33708;49.466;11.176;2024-01-15T11:05:28;20.83;;;11.80;;
4698;SDS011;33708;49.466;11.176;2024-01-15T11:07:58;22.43;;;11.27;;
4698;SDS011;33708;49.466;11.176;2024-01-15T11:10:37;18.17;;;9.87;;
4698;SDS011;33708;49.466;11.176;2024-01-15T11:13:07;17.10;;;9.40;;
4698;SDS011;33708;49.466;11.176;2024-01-15T11:15:53;20.47;;;10.80;;
4698;SDS011;33708;49.466;11.176;2024-01-15T11:18:20;15.90;;;10.23;;
4698;SDS011;33708;49.466;11.176;2024-01-15T11:23:44;18.50;;;9.90;;
4698;SDS011;33708;49.466;11.176;2024-01-15T11:26:30;24.07;;;12.20;;
4698;SDS011;33708;49.466;11.176;2024-01-15T11:28:57;16.53;;;9.63;;
4698;SDS011;33708;49.466;11.176;2024-01-15T11:34:06;19.63;;;9.37;;
4698;SDS011;33708;49.466;11.176;2024-01-15T11:41:57;19.00;;;10.47;;
4698;SDS011;33708;49.466;11.176;2024-01-15T11:44:27;16.13;;;8.97;;
4698;SDS011;33708;49.466;11.176;2024-01-15T11:47:00;22.20;;;10.67;;
4698;SDS011;33708;49.466;11.176;2024-01-15T11:49:44;20.67;;;11.70;;
4698;SDS011;33708;49.466;11.176;2024-01-15T11:52:26;20.43;;;11.47;;
4698;SDS011;33708;49.466;11.176;2024-01-15T11:57:45;20.33;;;10.57;;
4698;SDS011;33708;49.466;11.176;2024-01-15T12:00:14;23.60;;;11.57;;
4698;SDS011;33708;49.466;11.176;2024-01-15T12:02:43;21.50;;;11.43;;
4698;SDS011;33708;49.466;11.176;2024-01-15T12:05:11;17.73;;;10.60;;
4698;SDS011;33708;49.466;11.176;2024-01-15T12:07:41;19.77;;;10.20;;
4698;SDS011;33708;49.466;11.176;2024-01-15T12:10:11;20.00;;;10.03;;
4698;SDS011;33708;49.466;11.176;2024-01-15T12:12:51;19.03;;;9.83;;
4698;SDS011;33708;49.466;11.176;2024-01-15T12:15:30;18.30;;;9.33;;
4698;SDS011;33708;49.466;11.176;2024-01-15T12:17:57;18.33;;;9.23;;
4698;SDS011;33708;49.466;11.176;2024-01-15T12:20:25;14.37;;;9.27;;
4698;SDS011;33708;49.466;11.176;2024-01-15T12:22:51;20.93;;;11.53;;
4698;SDS011;33708;49.466;11.176;2024-01-15T12:25:17;19.43;;;10.43;;
4698;SDS011;33708;49.466;11.176;2024-01-15T12:27:43;16.87;;;9.80;;
4698;SDS011;33708;49.466;11.176;2024-01-15T12:30:12;17.10;;;9.40;;
4698;SDS011;33708;49.466;11.176;2024-01-15T12:32:40;15.00;;;8.70;;
4698;SDS011;33708;49.466;11.176;2024-01-15T12:35:07;16.13;;;9.33;;
4698;SDS011;33708;49.466;11.176;2024-01-15T12:37:35;17.83;;;10.17;;
4698;SDS011;33708;49.466;11.176;2024-01-15T12:40:01;19.90;;;10.23;;
4698;SDS011;33708;49.466;11.176;2024-01-15T12:42:29;17.60;;;9.60;;
4698;SDS011;33708;49.466;11.176;2024-01-15T12:44:56;19.13;;;10.33;;
4698;SDS011;33708;49.466;11.176;2024-01-15T12:47:21;18.37;;;10.17;;
4698;SDS011;33708;49.466;11.176;2024-01-15T12:49:47;20.93;;;11.10;;
4698;SDS011;33708;49.466;11.176;2024-01-15T12:52:15;19.70;;;11.03;;
4698;SDS011;33708;49.466;11.176;2024-01-15T12:54:43;18.73;;;10.83;;
4698;SDS011;33708;49.466;11.176;2024-01-15T12:57:09;16.80;;;9.50;;
4698;SDS011;33708;49.466;11.176;2024-01-15T12:59:35;19.93;;;9.90;;
4698;SDS011;33708;49.466;11.176;2024-01-15T13:02:00;15.00;;;9.33;;
4698;SDS011;33708;49.466;11.176;2024-01-15T13:04:26;16.20;;;9.40;;
4698;SDS011;33708;49.466;11.176;2024-01-15T13:06:52;17.10;;;10.00;;
4698;SDS011;33708;49.466;11.176;2024-01-15T13:09:18;17.80;;;9.00;;
4698;SDS011;33708;49.466;11.176;2024-01-15T13:11:44;17.57;;;9.87;;
4698;SDS011;33708;49.466;11.176;2024-01-15T13:14:10;15.73;;;9.67;;
4698;SDS011;33708;49.466;11.176;2024-01-15T13:16:36;16.10;;;9.10;;
4698;SDS011;33708;49.466;11.176;2024-01-15T13:19:02;16.43;;;9.27;;
4698;SDS011;33708;49.466;11.176;2024-01-15T13:21:29;16.63;;;9.10;;
4698;SDS011;33708;49.466;11.176;2024-01-15T13:23:55;15.00;;;8.80;;
4698;SDS011;33708;49.466;11.176;2024-01-15T13:26:21;19.47;;;9.83;;
4698;SDS011;33708;49.466;11.176;2024-01-15T13:28:47;18.03;;;10.20;;
4698;SDS011;33708;49.466;11.176;2024-01-15T13:31:12;14.60;;;8.90;;
4698;SDS011;33708;49.466;11.176;2024-01-15T13:33:38;13.57;;;9.00;;
4698;SDS011;33708;49.466;11.176;2024-01-15T13:36:04;17.50;;;9.73;;
4698;SDS011;33708;49.466;11.176;2024-01-15T13:38:33;15.27;;;9.30;;
4698;SDS011;33708;49.466;11.176;2024-01-15T13:41:02;20.00;;;10.93;;
4698;SDS011;33708;49.466;11.176;2024-01-15T13:43:31;18.93;;;11.80;;
4698;SDS011;33708;49.466;11.176;2024-01-15T13:45:58;16.67;;;9.93;;
4698;SDS011;33708;49.466;11.176;2024-01-15T13:48:24;17.13;;;9.20;;
4698;SDS011;33708;49.466;11.176;2024-01-15T13:50:49;19.53;;;9.50;;
4698;SDS011;33708;49.466;11.176;2024-01-15T13:53:15;17.70;;;9.50;;
4698;SDS011;33708;49.466;11.176;2024-01-15T13:55:41;16.80;;;9.53;;
4698;SDS011;33708;49.466;11.176;2024-01-15T13:58:07;16.97;;;9.80;;
4698;SDS011;33708;49.466;11.176;2024-01-15T14:00:32;14.93;;;8.90;;
4698;SDS011;33708;49.466;11.176;2024-01-15T14:02:58;16.40;;;9.00;;
4698;SDS011;33708;49.466;11.176;2024-01-15T14:05:24;15.83;;;8.33;;
4698;SDS011;33708;49.466;11.176;2024-01-15T14:07:49;19.83;;;8.97;;
4698;SDS011;33708;49.466;11.176;2024-01-15T14:10:15;15.90;;;9.30;;
4698;SDS011;33708;49.466;11.176;2024-01-15T14:12:41;18.93;;;9.43;;
4698;SDS011;33708;49.466;11.176;2024-01-15T14:15:07;17.93;;;10.30;;
4698;SDS011;33708;49.466;11.176;2024-01-15T14:17:33;16.20;;;9.70;;
4698;SDS011;33708;49.466;11.176;2024-01-15T14:19:58;14.97;;;8.93;;
4698;SDS011;33708;49.466;11.176;2024-01-15T14:22:24;17.87;;;9.60;;
4698;SDS011;33708;49.466;11.176;2024-01-15T14:24:49;15.60;;;9.10;;
4698;SDS011;33708;49.466;11.176;2024-01-15T14:27:16;15.90;;;8.83;;
4698;SDS011;33708;49.466;11.176;2024-01-15T14:29:41;14.37;;;8.47;;
4698;SDS011;33708;49.466;11.176;2024-01-15T14:32:07;15.67;;;8.83;;